Liberty Park, Washington
Current Conditions -  °F | °C
As of 10:53 PM on Sunday 23 Nov 2014 (Local Time) from KSFF Reporting Station
Clear Clear  
Wind Chill: 31°   Ceiling: Unl
Heat Index: 35°   Visibility: 10mi
Dew Point: 29°   Wind: 5mph
Humidity: 78%   Direction: 270°W
Pressure: 30.16"   Gusts: NA
Location:  47.6483°N, 117.412°W
Report Text: KSFF 240653Z AUTO 27004KT 10SM CLR 02/M02 A3016 RMK AO2 SLP225 T00171017
Loading
Personal Weather Stations






























Interactive Weather Map New forecast layout! Learn more

10-Day Weather Forecast

Advertisements
Track Severe Weather on mobile